createdAt,value
2023-01-15T00:00:48.183Z,18.61
2023-01-15T00:03:13.755Z,18.61
2023-01-15T00:05:39.317Z,18.61
2023-01-15T00:08:04.869Z,18.62
2023-01-15T00:10:30.429Z,18.61
2023-01-15T00:12:55.974Z,18.61
2023-01-15T00:15:21.538Z,18.60
2023-01-15T00:17:47.078Z,18.61
2023-01-15T00:20:12.632Z,18.61
2023-01-15T00:22:38.222Z,18.61
2023-01-15T00:25:23.881Z,18.61
2023-01-15T00:27:49.445Z,18.61
2023-01-15T00:30:16.222Z,18.62
2023-01-15T00:32:42.017Z,18.61
2023-01-15T00:35:09.837Z,18.60
2023-01-15T00:37:35.405Z,18.60
2023-01-15T00:40:00.948Z,18.60
2023-01-15T00:42:26.505Z,18.61
2023-01-15T00:44:53.456Z,18.61
2023-01-15T00:47:19.008Z,18.60
2023-01-15T00:49:44.572Z,18.61
2023-01-15T00:52:10.479Z,18.60
2023-01-15T00:54:36.025Z,18.60
2023-01-15T00:57:01.578Z,18.60
2023-01-15T00:59:27.123Z,18.60
2023-01-15T01:01:52.835Z,18.61
2023-01-15T01:04:18.476Z,18.60
2023-01-15T01:06:44.037Z,18.60
2023-01-15T01:09:16.563Z,18.59
2023-01-15T01:11:42.124Z,18.59
2023-01-15T01:14:08.509Z,18.59
2023-01-15T01:16:35.082Z,18.59
2023-01-15T01:19:02.712Z,18.60
2023-01-15T01:21:28.567Z,18.59
2023-01-15T01:23:54.294Z,18.59
2023-01-15T01:26:19.925Z,18.60
2023-01-15T01:28:49.394Z,18.58
2023-01-15T01:31:15.010Z,18.60
2023-01-15T01:33:40.575Z,18.59
2023-01-15T01:36:06.200Z,18.60
2023-01-15T01:38:31.770Z,18.59
2023-01-15T01:40:57.316Z,18.58
2023-01-15T01:43:23.941Z,18.60
2023-01-15T01:45:49.537Z,18.59
2023-01-15T01:48:15.449Z,18.59
2023-01-15T01:50:40.999Z,18.59
2023-01-15T01:53:07.725Z,18.58
2023-01-15T01:55:33.978Z,18.59
2023-01-15T01:57:59.890Z,18.58
2023-01-15T02:00:25.452Z,18.58
2023-01-15T02:02:51.272Z,18.58
2023-01-15T02:05:20.864Z,18.58
2023-01-15T02:07:46.414Z,18.58
2023-01-15T02:10:13.120Z,18.59
2023-01-15T02:12:38.681Z,18.57
2023-01-15T02:15:10.530Z,18.59
2023-01-15T02:17:39.547Z,18.59
2023-01-15T02:20:27.919Z,18.58
2023-01-15T02:23:03.797Z,18.58
2023-01-15T02:25:49.226Z,18.59
2023-01-15T02:28:17.071Z,18.58
2023-01-15T02:30:44.015Z,18.58
2023-01-15T02:33:11.511Z,18.58
2023-01-15T02:35:39.556Z,18.58
2023-01-15T02:38:06.732Z,18.58
2023-01-15T02:40:32.282Z,18.58
2023-01-15T02:42:57.847Z,18.59
2023-01-15T02:45:26.169Z,18.59
2023-01-15T02:47:53.253Z,18.58
2023-01-15T02:50:19.358Z,18.58
2023-01-15T02:52:46.213Z,18.58
2023-01-15T02:55:13.755Z,18.57
2023-01-15T02:57:39.383Z,18.58
2023-01-15T03:00:08.132Z,18.58
2023-01-15T03:02:36.075Z,18.57
2023-01-15T03:05:04.771Z,18.58
2023-01-15T03:07:31.578Z,18.56
2023-01-15T03:09:57.126Z,18.57
2023-01-15T03:12:25.363Z,18.58
2023-01-15T03:15:06.920Z,18.57
2023-01-15T03:17:35.238Z,18.57
2023-01-15T03:20:04.908Z,18.57
2023-01-15T03:22:31.633Z,18.57
2023-01-15T03:25:01.590Z,18.56
2023-01-15T03:27:27.137Z,18.57
2023-01-15T03:29:58.074Z,18.56
2023-01-15T03:32:24.561Z,18.58
2023-01-15T03:34:50.966Z,18.56
2023-01-15T03:37:16.647Z,18.57
2023-01-15T03:39:42.207Z,18.58
2023-01-15T03:42:27.641Z,18.56
2023-01-15T03:45:03.143Z,18.56
2023-01-15T03:47:30.239Z,18.57
2023-01-15T03:50:15.693Z,18.55
2023-01-15T03:52:51.488Z,18.56
2023-01-15T03:55:18.978Z,18.57
2023-01-15T03:57:49.887Z,18.56
2023-01-15T04:00:20.995Z,18.56
2023-01-15T04:02:46.620Z,18.57
2023-01-15T04:05:12.171Z,18.56
2023-01-15T04:07:37.718Z,18.58
2023-01-15T04:10:06.327Z,18.57
2023-01-15T04:12:33.224Z,18.57
2023-01-15T04:14:58.791Z,18.57
2023-01-15T04:17:24.336Z,18.56
2023-01-15T04:19:50.558Z,18.56
2023-01-15T04:22:16.116Z,18.56
2023-01-15T04:24:41.676Z,18.56
2023-01-15T04:27:07.280Z,18.58
2023-01-15T04:29:32.843Z,18.56
2023-01-15T04:31:58.477Z,18.56
2023-01-15T04:34:25.073Z,18.56
2023-01-15T04:36:50.633Z,18.55
2023-01-15T04:39:16.183Z,18.56
2023-01-15T04:42:01.648Z,18.56
2023-01-15T04:44:28.447Z,18.56
2023-01-15T04:46:54.256Z,18.56
2023-01-15T04:49:19.806Z,18.56
2023-01-15T04:51:45.575Z,18.56
2023-01-15T04:54:11.604Z,18.56
2023-01-15T04:56:38.737Z,18.56
2023-01-15T04:59:04.290Z,18.56
2023-01-15T05:01:29.899Z,18.56
2023-01-15T05:03:57.435Z,18.55
2023-01-15T05:06:23.262Z,18.56
2023-01-15T05:08:48.805Z,18.56
2023-01-15T05:11:14.377Z,18.56
2023-01-15T05:13:39.937Z,18.56
2023-01-15T05:16:07.610Z,18.56
2023-01-15T05:18:33.178Z,18.55
2023-01-15T05:20:58.754Z,18.56
2023-01-15T05:23:24.310Z,18.56
2023-01-15T05:25:49.883Z,18.55
2023-01-15T05:28:15.431Z,18.55
2023-01-15T05:30:40.992Z,18.55
2023-01-15T05:33:06.547Z,18.56
2023-01-15T05:35:32.108Z,18.56
2023-01-15T05:37:57.655Z,18.56
2023-01-15T05:40:23.210Z,18.55
2023-01-15T05:42:48.751Z,18.55
2023-01-15T05:45:14.314Z,18.56
2023-01-15T05:47:39.864Z,18.56
2023-01-15T05:50:05.522Z,18.55
2023-01-15T05:52:31.062Z,18.55
2023-01-15T05:54:56.619Z,18.55
2023-01-15T05:57:22.166Z,18.55
2023-01-15T05:59:49.600Z,18.56
2023-01-15T06:02:15.200Z,18.54
2023-01-15T06:04:40.755Z,18.55
2023-01-15T06:07:06.308Z,18.56
2023-01-15T06:09:31.896Z,18.55
2023-01-15T06:11:57.451Z,18.55
2023-01-15T06:14:23.151Z,18.55
2023-01-15T06:16:48.690Z,18.55
2023-01-15T06:19:14.253Z,18.55
2023-01-15T06:21:39.803Z,18.55
2023-01-15T06:24:05.528Z,18.55
2023-01-15T06:26:31.082Z,18.56
2023-01-15T06:28:56.642Z,18.55
2023-01-15T06:31:22.581Z,18.55
2023-01-15T06:33:48.292Z,18.56
2023-01-15T06:36:14.756Z,18.56
2023-01-15T06:38:40.423Z,18.56
2023-01-15T06:41:26.332Z,18.55
2023-01-15T06:44:11.947Z,18.55
2023-01-15T06:47:02.144Z,18.56
2023-01-15T06:49:27.691Z,18.55
2023-01-15T06:51:53.250Z,18.55
2023-01-15T06:54:18.804Z,18.55
2023-01-15T06:56:44.362Z,18.55
2023-01-15T06:59:11.900Z,18.55
2023-01-15T07:01:38.102Z,18.55
2023-01-15T07:04:03.730Z,18.55
2023-01-15T07:06:29.294Z,18.55
2023-01-15T07:08:54.838Z,18.54
2023-01-15T07:11:20.432Z,18.56
2023-01-15T07:13:45.982Z,18.55
2023-01-15T07:16:26.194Z,18.56
2023-01-15T07:18:52.006Z,18.55
2023-01-15T07:21:17.698Z,18.54
2023-01-15T07:23:43.248Z,18.55
2023-01-15T07:26:08.807Z,18.55
2023-01-15T07:28:34.369Z,18.55
2023-01-15T07:30:59.925Z,18.55
2023-01-15T07:33:25.477Z,18.55
2023-01-15T07:35:51.034Z,18.55
2023-01-15T07:38:16.590Z,18.55
2023-01-15T07:40:42.137Z,18.56
2023-01-15T07:43:27.983Z,18.55
2023-01-15T07:46:13.435Z,18.55
2023-01-15T07:48:58.885Z,18.55
2023-01-15T07:51:24.452Z,18.56
2023-01-15T07:53:49.992Z,18.55
2023-01-15T07:56:15.597Z,18.55
2023-01-15T07:58:41.189Z,18.54
2023-01-15T08:01:06.809Z,18.55
2023-01-15T08:03:32.450Z,18.55
2023-01-15T08:05:58.025Z,18.55
2023-01-15T08:08:23.569Z,18.55
2023-01-15T08:11:09.028Z,18.55
2023-01-15T08:13:54.479Z,18.55
2023-01-15T08:16:20.067Z,18.55
2023-01-15T08:18:45.899Z,18.56
2023-01-15T08:21:13.512Z,18.56
2023-01-15T08:23:39.055Z,18.54
2023-01-15T08:26:05.278Z,18.54
2023-01-15T08:28:30.831Z,18.55
2023-01-15T08:30:56.408Z,18.55
2023-01-15T08:33:21.952Z,18.55
2023-01-15T08:35:47.507Z,18.55
2023-01-15T08:38:13.073Z,18.56
2023-01-15T08:40:57.615Z,18.55
2023-01-15T08:43:23.483Z,18.55
2023-01-15T08:45:49.076Z,18.56
2023-01-15T08:48:14.639Z,18.55
2023-01-15T08:50:40.201Z,18.54
2023-01-15T08:53:05.751Z,18.55
2023-01-15T08:55:32.062Z,18.56
2023-01-15T08:57:57.707Z,18.56
2023-01-15T09:00:23.841Z,18.55
2023-01-15T09:02:50.323Z,18.55
2023-01-15T09:05:15.987Z,18.56
2023-01-15T09:07:41.662Z,18.55
2023-01-15T09:10:07.476Z,18.55
2023-01-15T09:12:33.034Z,18.55
2023-01-15T09:15:03.195Z,18.55
2023-01-15T09:17:29.092Z,18.56
2023-01-15T09:19:54.656Z,18.56
2023-01-15T09:22:20.231Z,18.55
2023-01-15T09:24:46.388Z,18.54
2023-01-15T09:27:11.983Z,18.55
2023-01-15T09:29:37.536Z,18.55
2023-01-15T09:32:03.084Z,18.55
2023-01-15T09:34:28.637Z,18.55
2023-01-15T09:36:54.204Z,18.56
2023-01-15T09:39:19.766Z,18.55
2023-01-15T09:42:10.851Z,18.55
2023-01-15T09:44:38.891Z,18.55
2023-01-15T09:47:24.324Z,18.55
2023-01-15T09:50:09.813Z,18.55
2023-01-15T09:52:43.909Z,18.55
2023-01-15T09:55:12.653Z,18.55
2023-01-15T09:57:38.308Z,18.55
2023-01-15T10:00:04.634Z,18.55
2023-01-15T10:02:33.552Z,18.54
2023-01-15T10:05:04.699Z,18.55
2023-01-15T10:07:50.703Z,18.54
2023-01-15T10:10:18.281Z,18.55
2023-01-15T10:12:44.404Z,18.55
2023-01-15T10:15:13.973Z,18.54
2023-01-15T10:17:43.556Z,18.55
2023-01-15T10:20:15.340Z,18.55
2023-01-15T10:22:47.979Z,18.55
2023-01-15T10:25:15.433Z,18.55
2023-01-15T10:27:41.166Z,18.55
2023-01-15T10:30:12.129Z,18.54
2023-01-15T10:33:01.163Z,18.55
2023-01-15T10:35:30.516Z,18.55
2023-01-15T10:37:58.422Z,18.55
2023-01-15T10:40:41.697Z,18.54
2023-01-15T10:43:27.131Z,18.55
2023-01-15T10:45:56.535Z,18.54
2023-01-15T10:48:41.985Z,18.54
2023-01-15T10:51:24.153Z,18.54
2023-01-15T10:54:06.735Z,18.54
2023-01-15T10:56:33.421Z,18.54
2023-01-15T10:59:07.676Z,18.55
2023-01-15T11:01:33.344Z,18.55
2023-01-15T11:03:58.959Z,18.55
2023-01-15T11:06:25.693Z,18.55
2023-01-15T11:09:11.318Z,18.54
2023-01-15T11:14:53.344Z,18.55
2023-01-15T11:17:38.794Z,18.55
2023-01-15T11:20:09.944Z,18.54
2023-01-15T11:22:37.425Z,18.55
2023-01-15T11:25:03.323Z,18.56
2023-01-15T11:27:30.912Z,18.55
2023-01-15T11:29:57.361Z,18.55
2023-01-15T11:32:26.351Z,18.55
2023-01-15T11:34:53.160Z,18.55
2023-01-15T11:37:18.710Z,18.55
2023-01-15T11:39:50.935Z,18.54
2023-01-15T11:42:36.390Z,18.55
2023-01-15T11:45:21.855Z,18.54
2023-01-15T11:48:14.574Z,18.56
2023-01-15T11:50:47.406Z,18.55
2023-01-15T11:53:18.422Z,18.55
2023-01-15T11:56:00.144Z,18.54
2023-01-15T11:58:26.655Z,18.55
2023-01-15T12:00:53.908Z,18.55
2023-01-15T12:03:20.429Z,18.55
2023-01-15T12:05:47.192Z,18.54
2023-01-15T12:08:18.439Z,18.55
2023-01-15T12:11:25.288Z,18.54
2023-01-15T12:13:56.050Z,18.54
2023-01-15T12:16:28.216Z,18.54
2023-01-15T12:19:05.262Z,18.55
2023-01-15T12:21:37.441Z,18.55
2023-01-15T12:24:09.936Z,18.55
2023-01-15T12:26:38.624Z,18.55
2023-01-15T12:31:41.917Z,18.55
2023-01-15T12:34:12.047Z,18.54
2023-01-15T12:36:38.505Z,18.55
2023-01-15T12:39:11.297Z,18.54
2023-01-15T12:41:58.375Z,18.55
2023-01-15T12:45:03.783Z,18.55
2023-01-15T12:47:49.238Z,18.54
2023-01-15T12:50:19.194Z,18.54
2023-01-15T12:52:45.282Z,18.54
2023-01-15T12:55:15.246Z,18.55
2023-01-15T12:57:43.208Z,18.54
2023-01-15T13:00:12.720Z,18.55
2023-01-15T13:02:58.204Z,18.55
2023-01-15T13:05:39.391Z,18.54
2023-01-15T13:08:09.765Z,18.54
2023-01-15T13:10:35.764Z,18.54
2023-01-15T13:13:14.512Z,18.54
2023-01-15T13:15:41.896Z,18.54
2023-01-15T13:18:11.844Z,18.54
2023-01-15T13:20:43.019Z,18.55
2023-01-15T13:23:28.512Z,18.54
2023-01-15T13:28:40.858Z,18.55
2023-01-15T13:31:09.699Z,18.54
2023-01-15T13:33:37.270Z,18.55
2023-01-15T13:36:04.461Z,18.54
2023-01-15T13:38:30.212Z,18.54
2023-01-15T13:40:55.776Z,18.55
2023-01-15T13:43:24.028Z,18.54
2023-01-15T13:45:49.684Z,18.53
2023-01-15T13:48:19.409Z,18.55
2023-01-15T13:50:52.580Z,18.54
2023-01-15T13:53:38.235Z,18.54
2023-01-15T13:56:08.153Z,18.54
2023-01-15T13:58:34.616Z,18.54
2023-01-15T14:01:02.103Z,18.55
2023-01-15T14:03:28.656Z,18.54
2023-01-15T14:05:55.678Z,18.55
2023-01-15T14:08:24.377Z,18.54
2023-01-15T14:10:49.929Z,18.55
2023-01-15T14:13:28.231Z,18.55
2023-01-15T14:16:00.964Z,18.55
2023-01-15T14:21:11.000Z,18.55
2023-01-15T14:23:56.475Z,18.55
2023-01-15T14:26:26.053Z,18.54
2023-01-15T14:29:11.592Z,18.55
2023-01-15T14:31:57.118Z,18.55
2023-01-15T14:34:24.073Z,18.55
2023-01-15T14:37:09.515Z,18.55
2023-01-15T14:39:45.794Z,18.54
2023-01-15T14:42:36.756Z,18.54
2023-01-15T14:45:04.540Z,18.55
2023-01-15T14:47:31.642Z,18.55
2023-01-15T14:49:59.161Z,18.53
2023-01-15T14:52:24.711Z,18.54
2023-01-15T14:54:51.027Z,18.54
2023-01-15T14:57:16.573Z,18.54
2023-01-15T14:59:44.842Z,18.55
2023-01-15T15:02:15.195Z,18.54
2023-01-15T15:04:44.339Z,18.55
2023-01-15T15:07:11.576Z,18.55
2023-01-15T15:09:57.738Z,18.54
2023-01-15T15:12:26.424Z,18.55
2023-01-15T15:14:57.417Z,18.55
2023-01-15T15:17:26.345Z,18.55
2023-01-15T15:19:55.134Z,18.55
2023-01-15T15:22:20.701Z,18.54
2023-01-15T15:24:47.207Z,18.55
2023-01-15T15:27:14.784Z,18.54
2023-01-15T15:29:40.370Z,18.55
2023-01-15T15:32:08.069Z,18.54
2023-01-15T15:34:37.372Z,18.54
2023-01-15T15:37:03.711Z,18.54
2023-01-15T15:39:50.903Z,18.55
2023-01-15T15:42:44.605Z,18.54
2023-01-15T15:45:38.534Z,18.55
2023-01-15T15:48:32.375Z,18.54
2023-01-15T15:50:58.252Z,18.54
2023-01-15T15:53:23.793Z,18.54
2023-01-15T15:55:49.357Z,18.54
2023-01-15T15:58:19.033Z,18.54
2023-01-15T16:00:45.752Z,18.54
2023-01-15T16:03:20.064Z,18.54
2023-01-15T16:06:05.507Z,18.54
2023-01-15T16:08:31.711Z,18.55
2023-01-15T16:10:58.499Z,18.54
2023-01-15T16:13:25.497Z,18.55
2023-01-15T16:15:55.931Z,18.54
2023-01-15T16:18:25.804Z,18.55
2023-01-15T16:20:51.498Z,18.55
2023-01-15T16:23:19.134Z,18.55
2023-01-15T16:25:53.819Z,18.54
2023-01-15T16:28:21.794Z,18.55
2023-01-15T16:30:53.548Z,18.54
2023-01-15T16:33:19.108Z,18.54
2023-01-15T16:35:44.672Z,18.54
2023-01-15T16:38:15.159Z,18.53
2023-01-15T16:40:43.365Z,18.54
2023-01-15T16:43:10.867Z,18.55
2023-01-15T16:45:37.094Z,18.54
2023-01-15T16:48:18.262Z,18.55
2023-01-15T16:50:43.824Z,18.54
2023-01-15T16:53:29.258Z,18.54
2023-01-15T16:55:56.250Z,18.54
2023-01-15T16:58:31.441Z,18.54
2023-01-15T17:00:57.525Z,18.55
2023-01-15T17:03:24.173Z,18.54
2023-01-15T17:05:52.101Z,18.54
2023-01-15T17:08:19.270Z,18.53
2023-01-15T17:10:52.701Z,18.54
2023-01-15T17:13:18.467Z,18.55
2023-01-15T17:15:44.197Z,18.55
2023-01-15T17:18:18.225Z,18.55
2023-01-15T17:20:45.185Z,18.55
2023-01-15T17:23:10.730Z,18.55
2023-01-15T17:25:36.833Z,18.54
2023-01-15T17:28:02.626Z,18.54
2023-01-15T17:30:32.136Z,18.54
2023-01-15T17:32:58.231Z,18.55
2023-01-15T17:35:25.117Z,18.56
2023-01-15T17:37:50.666Z,18.54
2023-01-15T17:40:16.261Z,18.55
2023-01-15T17:42:41.809Z,18.55
2023-01-15T17:45:13.198Z,18.54
2023-01-15T17:47:39.319Z,18.55
2023-01-15T17:50:05.058Z,18.55
2023-01-15T17:52:30.604Z,18.54
2023-01-15T17:55:18.331Z,18.54
2023-01-15T17:58:04.438Z,18.54
2023-01-15T18:00:49.907Z,18.55
2023-01-15T18:03:35.986Z,18.55
2023-01-15T18:06:01.717Z,18.55
2023-01-15T18:08:28.328Z,18.55
2023-01-15T18:10:53.887Z,18.55
2023-01-15T18:13:19.426Z,18.55
2023-01-15T18:15:44.996Z,18.54
2023-01-15T18:18:10.854Z,18.54
2023-01-15T18:20:36.405Z,18.54
2023-01-15T18:23:01.958Z,18.55
2023-01-15T18:25:27.529Z,18.55
2023-01-15T18:27:53.096Z,18.54
2023-01-15T18:30:18.812Z,18.54
2023-01-15T18:32:45.087Z,18.54
2023-01-15T18:35:11.159Z,18.55
2023-01-15T18:37:36.847Z,18.54
2023-01-15T18:40:02.655Z,18.54
2023-01-15T18:42:48.135Z,18.54
2023-01-15T18:45:33.662Z,18.54
2023-01-15T18:47:59.895Z,18.54
2023-01-15T18:50:25.449Z,18.55
2023-01-15T18:52:51.120Z,18.54
2023-01-15T18:55:18.271Z,18.54
2023-01-15T18:57:43.822Z,18.55
2023-01-15T19:00:10.847Z,18.54
2023-01-15T19:02:36.435Z,18.55
2023-01-15T19:05:02.002Z,18.54
2023-01-15T19:07:27.558Z,18.55
2023-01-15T19:09:53.124Z,18.54
2023-01-15T19:12:19.246Z,18.54
2023-01-15T19:15:04.824Z,18.54
2023-01-15T19:17:50.393Z,18.54
2023-01-15T19:20:16.810Z,18.53
2023-01-15T19:23:05.430Z,18.53
2023-01-15T19:25:34.864Z,18.54
2023-01-15T19:28:00.467Z,18.54
2023-01-15T19:30:26.247Z,18.55
2023-01-15T19:32:51.801Z,18.54
2023-01-15T19:35:17.604Z,18.54
2023-01-15T19:37:43.268Z,18.54
2023-01-15T19:40:21.826Z,18.54
2023-01-15T19:43:07.728Z,18.55
2023-01-15T19:45:53.193Z,18.54
2023-01-15T19:48:38.857Z,18.54
2023-01-15T19:51:04.711Z,18.55
2023-01-15T19:53:30.259Z,18.54
2023-01-15T19:55:55.899Z,18.55
2023-01-15T19:58:21.454Z,18.55
2023-01-15T20:00:48.355Z,18.54
2023-01-15T20:03:14.012Z,18.55
2023-01-15T20:05:40.351Z,18.54
2023-01-15T20:08:08.240Z,18.54
2023-01-15T20:10:36.027Z,18.54
2023-01-15T20:13:21.476Z,18.55
2023-01-15T20:15:47.046Z,18.53
2023-01-15T20:18:13.181Z,18.53
2023-01-15T20:20:38.912Z,18.54
2023-01-15T20:23:04.483Z,18.54
2023-01-15T20:25:30.182Z,18.54
2023-01-15T20:27:56.388Z,18.55
2023-01-15T20:30:22.826Z,18.54
2023-01-15T20:32:48.496Z,18.53
2023-01-15T20:35:17.939Z,18.55
2023-01-15T20:37:43.506Z,18.53
2023-01-15T20:40:09.370Z,18.53
2023-01-15T20:42:54.906Z,18.55
2023-01-15T20:45:20.606Z,18.54
2023-01-15T20:48:06.048Z,18.54
2023-01-15T20:50:33.245Z,18.55
2023-01-15T20:52:59.186Z,18.55
2023-01-15T20:55:31.104Z,18.54
2023-01-15T20:57:58.055Z,18.55
2023-01-15T21:00:23.774Z,18.55
2023-01-15T21:02:49.339Z,18.55
2023-01-15T21:05:14.881Z,18.54
2023-01-15T21:07:40.444Z,18.54
2023-01-15T21:10:06.931Z,18.54
2023-01-15T21:12:32.565Z,18.54
2023-01-15T21:14:58.128Z,18.54
2023-01-15T21:17:23.680Z,18.54
2023-01-15T21:19:49.220Z,18.55
2023-01-15T21:22:14.771Z,18.54
2023-01-15T21:24:40.324Z,18.55
2023-01-15T21:27:05.896Z,18.54
2023-01-15T21:29:31.449Z,18.54
2023-01-15T21:31:57.101Z,18.55
2023-01-15T21:34:22.726Z,18.54
2023-01-15T21:36:48.328Z,18.55
2023-01-15T21:39:14.766Z,18.54
2023-01-15T21:42:00.512Z,18.54
2023-01-15T21:44:34.923Z,18.54
2023-01-15T21:47:02.695Z,18.54
2023-01-15T21:49:30.728Z,18.54
2023-01-15T21:51:56.295Z,18.54
2023-01-15T21:54:22.174Z,18.54
2023-01-15T21:56:47.739Z,18.54
2023-01-15T21:59:13.390Z,18.54
2023-01-15T22:01:39.229Z,18.54
2023-01-15T22:04:05.399Z,18.54
2023-01-15T22:06:31.187Z,18.55
2023-01-15T22:08:56.807Z,18.54
2023-01-15T22:11:22.554Z,18.54
2023-01-15T22:13:49.701Z,18.54
2023-01-15T22:16:15.975Z,18.54
2023-01-15T22:18:41.586Z,18.55
2023-01-15T22:21:07.642Z,18.54
2023-01-15T22:23:33.681Z,18.54
2023-01-15T22:25:59.311Z,18.54
2023-01-15T22:28:24.857Z,18.55
2023-01-15T22:30:50.471Z,18.54
2023-01-15T22:33:16.057Z,18.54
2023-01-15T22:35:41.618Z,18.55
2023-01-15T22:38:07.397Z,18.54
2023-01-15T22:40:32.940Z,18.55
2023-01-15T22:42:58.866Z,18.54
2023-01-15T22:45:24.416Z,18.55
2023-01-15T22:47:49.977Z,18.54
2023-01-15T22:50:15.792Z,18.55
2023-01-15T22:52:41.372Z,18.54
2023-01-15T22:55:07.120Z,18.54
2023-01-15T22:57:32.989Z,18.54
2023-01-15T22:59:58.564Z,18.55
2023-01-15T23:02:44.009Z,18.54
2023-01-15T23:05:09.846Z,18.54
2023-01-15T23:07:36.480Z,18.54
2023-01-15T23:10:02.465Z,18.54
2023-01-15T23:12:29.039Z,18.54
2023-01-15T23:14:54.595Z,18.54
2023-01-15T23:17:20.153Z,18.54
2023-01-15T23:19:45.709Z,18.54
2023-01-15T23:22:11.357Z,18.54
2023-01-15T23:24:36.905Z,18.54
2023-01-15T23:27:02.462Z,18.54
2023-01-15T23:29:28.004Z,18.55
2023-01-15T23:31:53.567Z,18.54
2023-01-15T23:34:19.119Z,18.54
2023-01-15T23:36:44.671Z,18.55
2023-01-15T23:39:10.225Z,18.54
2023-01-15T23:41:55.679Z,18.55
2023-01-15T23:44:41.223Z,18.54
2023-01-15T23:47:06.963Z,18.54
2023-01-15T23:49:32.639Z,18.53
2023-01-15T23:51:58.281Z,18.54
2023-01-15T23:54:27.743Z,18.54
2023-01-15T23:56:53.751Z,18.54
2023-01-15T23:59:19.292Z,18.54
